createdAt,value
2023-03-07T00:01:32.989Z,21.20
2023-03-07T00:04:00.270Z,21.19
2023-03-07T00:06:27.347Z,21.17
2023-03-07T00:08:59.270Z,21.19
2023-03-07T00:11:26.758Z,21.20
2023-03-07T00:13:54.069Z,21.22
2023-03-07T00:16:22.542Z,21.21
2023-03-07T00:18:49.663Z,21.12
2023-03-07T00:21:19.218Z,21.22
2023-03-07T00:23:46.653Z,21.23
2023-03-07T00:26:19.641Z,21.24
2023-03-07T00:28:49.475Z,21.15
2023-03-07T00:31:17.060Z,21.19
2023-03-07T00:33:43.751Z,21.23
2023-03-07T00:36:16.064Z,21.13
2023-03-07T00:38:42.773Z,21.25
2023-03-07T00:41:18.046Z,21.25
2023-03-07T00:43:48.110Z,21.26
2023-03-07T00:46:16.672Z,21.26
2023-03-07T00:48:44.131Z,21.26
2023-03-07T00:51:13.706Z,21.26
2023-03-07T00:53:40.393Z,21.27
2023-03-07T00:56:10.003Z,21.27
2023-03-07T00:58:36.929Z,21.26
2023-03-07T01:01:05.556Z,21.27
2023-03-07T01:03:32.839Z,21.17
2023-03-07T01:06:03.679Z,21.27
2023-03-07T01:08:31.229Z,21.28
2023-03-07T01:11:02.854Z,21.27
2023-03-07T01:13:29.904Z,21.27
2023-03-07T01:15:56.824Z,21.27
2023-03-07T01:18:23.802Z,21.27
2023-03-07T01:20:50.314Z,21.27
2023-03-07T01:23:16.872Z,21.30
2023-03-07T01:25:43.975Z,21.29
2023-03-07T01:28:14.238Z,21.29
2023-03-07T01:30:41.489Z,21.29
2023-03-07T01:33:09.665Z,21.30
2023-03-07T01:35:38.436Z,21.29
2023-03-07T01:38:05.835Z,21.30
2023-03-07T01:40:34.330Z,21.29
2023-03-07T01:43:23.188Z,21.30
2023-03-07T01:46:18.783Z,21.28
2023-03-07T01:48:55.610Z,21.19
2023-03-07T01:51:23.626Z,21.18
2023-03-07T01:53:53.811Z,21.28
2023-03-07T01:56:22.084Z,21.28
2023-03-07T01:58:49.297Z,21.28
2023-03-07T02:01:17.559Z,21.27
2023-03-07T02:03:58.371Z,21.28
2023-03-07T02:06:27.593Z,21.28
2023-03-07T02:08:56.564Z,21.27
2023-03-07T02:11:24.460Z,21.27
2023-03-07T02:13:52.152Z,21.23
2023-03-07T02:16:18.944Z,21.22
2023-03-07T02:18:48.907Z,21.28
2023-03-07T02:21:36.690Z,21.27
2023-03-07T02:24:08.986Z,21.16
2023-03-07T02:26:42.341Z,21.27
2023-03-07T02:29:09.562Z,21.27
2023-03-07T02:31:36.422Z,21.22
2023-03-07T02:34:03.097Z,21.27
2023-03-07T02:36:34.862Z,21.28
2023-03-07T02:39:18.538Z,21.28
2023-03-07T02:41:46.355Z,21.27
2023-03-07T02:44:23.986Z,21.17
2023-03-07T02:46:50.654Z,21.28
2023-03-07T02:49:18.538Z,21.28
2023-03-07T02:51:45.118Z,21.27
2023-03-07T02:54:12.340Z,21.28
2023-03-07T02:56:39.065Z,21.28
2023-03-07T02:59:05.918Z,21.27
2023-03-07T03:01:33.120Z,21.27
2023-03-07T03:03:59.762Z,21.27
2023-03-07T03:06:26.359Z,21.26
2023-03-07T03:08:52.938Z,21.26
2023-03-07T03:11:19.749Z,21.26
2023-03-07T03:13:46.762Z,21.26
2023-03-07T03:16:13.507Z,21.25
2023-03-07T03:18:40.089Z,21.25
2023-03-07T03:21:11.272Z,21.25
2023-03-07T03:23:38.572Z,21.25
2023-03-07T03:26:08.185Z,21.24
2023-03-07T03:28:35.981Z,21.24
2023-03-07T03:31:06.484Z,21.19
2023-03-07T03:33:33.307Z,21.24
2023-03-07T03:36:06.326Z,21.23
2023-03-07T03:38:33.574Z,21.23
2023-03-07T03:41:04.298Z,21.23
2023-03-07T03:43:31.853Z,21.19
2023-03-07T03:45:58.638Z,21.22
2023-03-07T03:48:27.492Z,21.21
2023-03-07T03:51:21.909Z,21.21
2023-03-07T03:53:49.494Z,21.21
2023-03-07T03:56:19.112Z,21.21
2023-03-07T03:58:48.389Z,21.21
2023-03-07T04:01:14.903Z,21.21
2023-03-07T04:03:43.859Z,21.21
2023-03-07T04:06:14.004Z,21.21
2023-03-07T04:08:41.431Z,21.15
2023-03-07T04:11:08.135Z,21.18
2023-03-07T04:13:35.870Z,21.19
2023-03-07T04:16:03.211Z,21.19
2023-03-07T04:18:29.986Z,21.14
2023-03-07T04:20:57.160Z,21.18
2023-03-07T04:23:25.203Z,21.16
2023-03-07T04:25:57.278Z,21.16
2023-03-07T04:28:26.550Z,21.16
2023-03-07T04:30:53.901Z,21.15
2023-03-07T04:33:20.897Z,21.05
2023-03-07T04:35:48.870Z,21.15
2023-03-07T04:38:15.915Z,21.14
2023-03-07T04:40:42.528Z,21.14
2023-03-07T04:43:10.534Z,21.14
2023-03-07T04:45:37.295Z,21.13
2023-03-07T04:48:04.580Z,21.01
2023-03-07T04:50:32.501Z,21.11
2023-03-07T04:52:59.344Z,21.10
2023-03-07T04:55:26.322Z,21.10
2023-03-07T04:57:53.325Z,21.03
2023-03-07T05:00:20.398Z,21.08
2023-03-07T05:02:48.826Z,21.08
2023-03-07T05:05:17.258Z,21.07
2023-03-07T05:07:44.106Z,21.06
2023-03-07T05:10:11.916Z,21.06
2023-03-07T05:12:39.010Z,21.05
2023-03-07T05:15:07.975Z,21.04
2023-03-07T05:17:34.563Z,21.04
2023-03-07T05:20:01.097Z,21.04
2023-03-07T05:22:28.209Z,21.05
2023-03-07T05:24:54.973Z,21.04
2023-03-07T05:27:21.977Z,21.03
2023-03-07T05:29:48.526Z,21.03
2023-03-07T05:32:15.891Z,21.03
2023-03-07T05:34:43.111Z,21.02
2023-03-07T05:37:10.026Z,21.03
2023-03-07T05:39:36.891Z,21.01
2023-03-07T05:42:04.513Z,20.92
2023-03-07T05:44:34.078Z,21.00
2023-03-07T05:47:02.466Z,21.02
2023-03-07T05:49:29.493Z,21.02
2023-03-07T05:51:56.464Z,21.02
2023-03-07T05:54:23.208Z,21.01
2023-03-07T05:56:49.835Z,21.01
2023-03-07T05:59:17.086Z,21.01
2023-03-07T06:01:45.772Z,21.01
2023-03-07T06:04:12.539Z,21.00
2023-03-07T06:06:39.421Z,21.02
2023-03-07T06:09:06.022Z,20.98
2023-03-07T06:11:33.315Z,20.99
2023-03-07T06:14:00.102Z,20.99
2023-03-07T06:16:28.672Z,20.98
2023-03-07T06:18:59.278Z,20.98
2023-03-07T06:21:26.069Z,20.98
2023-03-07T06:23:52.679Z,20.99
2023-03-07T06:26:22.181Z,20.99
2023-03-07T06:28:51.782Z,21.00
2023-03-07T06:31:20.157Z,21.00
2023-03-07T06:33:47.751Z,21.00
2023-03-07T06:36:17.330Z,21.00
2023-03-07T06:38:47.833Z,20.99
2023-03-07T06:41:14.624Z,20.99
2023-03-07T06:43:41.555Z,21.00
2023-03-07T06:46:08.530Z,20.99
2023-03-07T06:48:39.086Z,20.99
2023-03-07T06:51:10.054Z,20.88
2023-03-07T06:53:39.338Z,20.96
2023-03-07T06:56:06.324Z,20.96
2023-03-07T06:58:34.480Z,20.95
2023-03-07T07:01:01.604Z,20.95
2023-03-07T07:03:29.153Z,20.92
2023-03-07T07:05:59.312Z,20.91
2023-03-07T07:08:27.258Z,20.91
2023-03-07T07:10:58.058Z,20.91
2023-03-07T07:13:25.300Z,20.90
2023-03-07T07:15:52.072Z,20.91
2023-03-07T07:18:18.969Z,20.91
2023-03-07T07:20:45.793Z,20.92
2023-03-07T07:23:12.573Z,20.86
2023-03-07T07:25:39.159Z,20.93
2023-03-07T07:28:05.804Z,20.93
2023-03-07T07:30:34.890Z,20.82
2023-03-07T07:33:01.723Z,20.95
2023-03-07T07:35:28.436Z,20.94
2023-03-07T07:37:55.242Z,20.71
2023-03-07T07:40:22.227Z,20.89
2023-03-07T07:42:54.392Z,20.61
2023-03-07T07:45:39.961Z,20.82
2023-03-07T07:48:08.680Z,20.77
2023-03-07T07:50:35.804Z,20.71
2023-03-07T07:53:03.710Z,20.55
2023-03-07T07:55:30.690Z,20.58
2023-03-07T07:57:57.367Z,20.65
2023-03-07T08:00:24.511Z,20.56
2023-03-07T08:02:51.573Z,20.56
2023-03-07T08:05:19.729Z,20.59
2023-03-07T08:07:47.261Z,19.70
2023-03-07T08:10:16.019Z,20.59
2023-03-07T08:12:51.371Z,20.54
2023-03-07T08:15:21.388Z,20.32
2023-03-07T08:17:49.260Z,20.46
2023-03-07T08:20:15.904Z,20.13
2023-03-07T08:22:44.053Z,20.39
2023-03-07T08:25:17.915Z,20.08
2023-03-07T08:27:44.826Z,19.98
2023-03-07T08:30:12.106Z,20.17
2023-03-07T08:32:38.889Z,19.50
2023-03-07T08:35:05.962Z,19.95
2023-03-07T08:37:32.649Z,20.12
2023-03-07T08:39:59.181Z,20.14
2023-03-07T08:42:25.992Z,19.84
2023-03-07T08:44:52.556Z,19.97
2023-03-07T08:47:19.150Z,19.98
2023-03-07T08:49:50.428Z,19.74
2023-03-07T08:52:17.064Z,19.80
2023-03-07T08:54:43.620Z,19.95
2023-03-07T08:57:10.791Z,19.65
2023-03-07T08:59:37.352Z,19.73
2023-03-07T09:02:04.054Z,19.49
2023-03-07T09:04:30.623Z,19.81
2023-03-07T09:07:00.047Z,19.75
2023-03-07T09:09:29.520Z,19.56
2023-03-07T09:11:56.112Z,19.66
2023-03-07T09:14:22.801Z,19.60
2023-03-07T09:16:50.027Z,19.66
2023-03-07T09:19:19.459Z,19.65
2023-03-07T09:21:46.091Z,19.62
2023-03-07T09:24:12.718Z,19.60
2023-03-07T09:26:39.331Z,19.33
2023-03-07T09:29:06.025Z,19.35
2023-03-07T09:31:33.380Z,19.17
2023-03-07T09:34:00.185Z,19.43
2023-03-07T09:36:26.830Z,19.30
2023-03-07T09:38:53.511Z,19.36
2023-03-07T09:41:51.121Z,19.17
2023-03-07T09:44:23.629Z,19.35
2023-03-07T09:47:42.717Z,19.32
2023-03-07T09:50:17.878Z,19.24
2023-03-07T09:52:44.721Z,19.26
2023-03-07T09:55:19.288Z,19.24
2023-03-07T09:57:56.382Z,19.20
2023-03-07T10:00:33.783Z,19.21
2023-03-07T10:03:09.678Z,19.18
2023-03-07T10:05:41.968Z,18.85
2023-03-07T10:08:13.414Z,19.16
2023-03-07T10:10:44.201Z,19.15
2023-03-07T10:13:23.661Z,19.13
2023-03-07T10:16:00.549Z,19.04
2023-03-07T10:18:36.075Z,19.13
2023-03-07T10:21:13.903Z,19.07
2023-03-07T10:23:55.776Z,19.14
2023-03-07T10:26:28.911Z,19.13
2023-03-07T10:28:59.997Z,19.03
2023-03-07T10:31:34.225Z,19.10
2023-03-07T10:34:19.950Z,18.85
2023-03-07T10:37:08.516Z,19.06
2023-03-07T10:39:49.678Z,18.99
2023-03-07T10:42:17.466Z,19.01
2023-03-07T10:44:46.056Z,19.01
2023-03-07T10:47:21.610Z,18.86
2023-03-07T10:49:50.646Z,18.84
2023-03-07T10:52:32.760Z,18.94
2023-03-07T10:55:36.434Z,18.94
2023-03-07T10:58:13.872Z,18.89
2023-03-07T11:00:40.948Z,18.76
2023-03-07T11:03:27.108Z,18.74
2023-03-07T11:05:54.120Z,18.78
2023-03-07T11:08:32.416Z,18.67
2023-03-07T11:11:00.936Z,18.78
2023-03-07T11:13:28.543Z,18.67
2023-03-07T11:16:14.807Z,18.77
2023-03-07T11:18:43.797Z,18.69
2023-03-07T11:21:31.795Z,18.43
2023-03-07T11:24:17.122Z,18.74
2023-03-07T11:26:43.842Z,18.70
2023-03-07T11:29:14.516Z,18.48
2023-03-07T11:31:50.702Z,18.48
2023-03-07T11:34:45.172Z,18.62
2023-03-07T11:37:33.547Z,18.58
2023-03-07T11:40:18.516Z,18.59
2023-03-07T11:42:55.356Z,18.39
2023-03-07T11:45:39.924Z,18.57
2023-03-07T11:48:12.469Z,18.58
2023-03-07T11:50:43.918Z,18.20
2023-03-07T11:53:31.793Z,18.40
2023-03-07T11:56:17.997Z,18.64
2023-03-07T11:59:03.577Z,18.63
2023-03-07T12:01:37.246Z,18.61
2023-03-07T12:04:12.827Z,18.58
2023-03-07T12:06:49.636Z,18.59
2023-03-07T12:09:39.964Z,18.58
2023-03-07T12:12:28.422Z,18.58
2023-03-07T12:15:16.419Z,18.58
2023-03-07T12:18:10.132Z,18.55
2023-03-07T12:20:54.815Z,18.58
2023-03-07T12:23:24.027Z,18.62
2023-03-07T12:25:55.469Z,18.66
2023-03-07T12:28:30.128Z,18.72
2023-03-07T12:31:11.562Z,18.68
2023-03-07T12:33:53.234Z,18.87
2023-03-07T12:36:25.767Z,18.92
2023-03-07T12:39:26.184Z,18.98
2023-03-07T12:42:04.318Z,19.03
2023-03-07T12:44:38.217Z,19.10
2023-03-07T12:47:20.016Z,19.04
2023-03-07T12:49:59.631Z,18.80
2023-03-07T12:52:47.671Z,19.28
2023-03-07T12:55:20.078Z,19.35
2023-03-07T12:57:59.640Z,19.19
2023-03-07T13:00:26.456Z,19.36
2023-03-07T13:03:21.881Z,19.51
2023-03-07T13:05:48.810Z,19.58
2023-03-07T13:08:23.425Z,19.27
2023-03-07T13:10:51.088Z,19.47
2023-03-07T13:13:46.548Z,19.74
2023-03-07T13:16:36.259Z,19.80
2023-03-07T13:19:30.838Z,19.85
2023-03-07T13:21:58.365Z,19.89
2023-03-07T13:24:41.847Z,19.93
2023-03-07T13:27:20.751Z,19.98
2023-03-07T13:30:11.744Z,20.02
2023-03-07T13:32:56.488Z,20.06
2023-03-07T13:35:29.155Z,20.09
2023-03-07T13:38:13.164Z,20.14
2023-03-07T13:40:48.973Z,20.17
2023-03-07T13:43:27.687Z,20.20
2023-03-07T13:46:00.376Z,20.24
2023-03-07T13:48:27.424Z,20.28
2023-03-07T13:50:56.899Z,20.31
2023-03-07T13:53:36.115Z,20.34
2023-03-07T13:56:15.255Z,20.36
2023-03-07T13:59:10.323Z,20.38
2023-03-07T14:01:44.135Z,20.40
2023-03-07T14:04:40.493Z,20.42
2023-03-07T14:07:12.977Z,20.45
2023-03-07T14:09:43.127Z,20.46
2023-03-07T14:12:32.388Z,20.49
2023-03-07T14:15:33.300Z,20.50
2023-03-07T14:18:22.130Z,20.52
2023-03-07T14:21:16.412Z,20.53
2023-03-07T14:24:02.069Z,20.54
2023-03-07T14:26:41.912Z,20.55
2023-03-07T14:29:23.469Z,20.38
2023-03-07T14:31:53.232Z,20.57
2023-03-07T14:34:31.528Z,20.59
2023-03-07T14:37:07.415Z,20.61
2023-03-07T14:39:58.769Z,20.63
2023-03-07T14:42:25.545Z,20.64
2023-03-07T14:45:06.624Z,20.47
2023-03-07T14:47:42.940Z,20.66
2023-03-07T14:50:20.180Z,20.68
2023-03-07T14:52:48.437Z,20.59
2023-03-07T14:55:22.419Z,20.69
2023-03-07T14:57:53.258Z,20.61
2023-03-07T15:00:20.324Z,20.72
2023-03-07T15:02:48.005Z,20.72
2023-03-07T15:05:23.813Z,20.72
2023-03-07T15:07:51.335Z,20.75
2023-03-07T15:10:22.669Z,20.75
2023-03-07T15:12:53.035Z,20.77
2023-03-07T15:15:37.471Z,20.58
2023-03-07T15:18:23.164Z,20.38
2023-03-07T15:20:51.936Z,20.38
2023-03-07T15:23:22.582Z,20.78
2023-03-07T15:25:50.943Z,20.80
2023-03-07T15:28:23.793Z,20.76
2023-03-07T15:30:53.666Z,20.54
2023-03-07T15:33:20.377Z,20.83
2023-03-07T15:36:07.088Z,20.68
2023-03-07T15:38:34.322Z,20.84
2023-03-07T15:41:01.047Z,20.30
2023-03-07T15:43:34.681Z,19.56
2023-03-07T15:46:07.379Z,20.85
2023-03-07T15:48:53.719Z,20.85
2023-03-07T15:51:23.599Z,20.85
2023-03-07T15:54:19.739Z,19.90
2023-03-07T15:56:46.828Z,20.87
2023-03-07T15:59:22.296Z,20.52
2023-03-07T16:01:49.072Z,20.85
2023-03-07T16:04:36.897Z,20.80
2023-03-07T16:07:04.665Z,20.87
2023-03-07T16:09:34.180Z,20.86
2023-03-07T16:12:00.831Z,20.87
2023-03-07T16:14:33.156Z,20.81
2023-03-07T16:17:03.923Z,20.89
2023-03-07T16:19:30.833Z,20.89
2023-03-07T16:21:58.597Z,20.89
2023-03-07T16:24:25.318Z,20.83
2023-03-07T16:26:51.909Z,20.88
2023-03-07T16:29:21.756Z,20.84
2023-03-07T16:31:48.460Z,20.78
2023-03-07T16:34:17.877Z,20.77
2023-03-07T16:36:44.498Z,20.78
2023-03-07T16:39:12.170Z,20.71
2023-03-07T16:41:43.365Z,20.90
2023-03-07T16:44:19.891Z,20.80
2023-03-07T16:47:03.785Z,20.80
2023-03-07T16:49:30.962Z,20.91
2023-03-07T16:52:05.568Z,20.78
2023-03-07T16:54:33.602Z,20.85
2023-03-07T16:57:01.396Z,20.93
2023-03-07T16:59:34.769Z,20.93
2023-03-07T17:02:01.975Z,20.80
2023-03-07T17:04:28.608Z,20.93
2023-03-07T17:07:04.326Z,20.92
2023-03-07T17:09:31.648Z,20.92
2023-03-07T17:11:58.367Z,20.88
2023-03-07T17:14:25.443Z,20.92
2023-03-07T17:16:52.035Z,20.91
2023-03-07T17:19:28.577Z,20.87
2023-03-07T17:21:58.354Z,20.92
2023-03-07T17:24:26.255Z,20.87
2023-03-07T17:26:53.913Z,20.94
2023-03-07T17:29:30.481Z,20.94
2023-03-07T17:31:57.114Z,20.94
2023-03-07T17:34:29.491Z,20.95
2023-03-07T17:36:57.572Z,20.92
2023-03-07T17:39:24.812Z,20.97
2023-03-07T17:41:52.014Z,20.96
2023-03-07T17:44:18.640Z,20.96
2023-03-07T17:46:45.232Z,20.97
2023-03-07T17:49:12.497Z,20.99
2023-03-07T17:51:39.412Z,21.00
2023-03-07T17:54:08.187Z,20.87
2023-03-07T17:56:36.555Z,20.92
2023-03-07T17:59:04.198Z,21.03
2023-03-07T18:01:33.031Z,20.98
2023-03-07T18:04:00.541Z,21.04
2023-03-07T18:06:27.462Z,20.96
2023-03-07T18:08:54.032Z,20.94
2023-03-07T18:11:21.551Z,21.03
2023-03-07T18:13:48.129Z,21.07
2023-03-07T18:16:14.744Z,21.08
2023-03-07T18:18:57.682Z,20.94
2023-03-07T18:21:26.354Z,20.95
2023-03-07T18:23:53.701Z,21.10
2023-03-07T18:26:21.436Z,21.13
2023-03-07T18:28:49.750Z,21.13
2023-03-07T18:31:19.341Z,21.14
2023-03-07T18:33:52.567Z,21.15
2023-03-07T18:36:21.465Z,21.07
2023-03-07T18:38:48.667Z,21.16
2023-03-07T18:41:21.062Z,21.08
2023-03-07T18:43:48.245Z,21.18
2023-03-07T18:46:18.177Z,21.15
2023-03-07T18:48:45.606Z,21.18
2023-03-07T18:51:15.282Z,21.18
2023-03-07T18:53:42.903Z,21.10
2023-03-07T18:56:15.305Z,21.17
2023-03-07T18:58:43.313Z,21.15
2023-03-07T19:01:24.420Z,21.21
2023-03-07T19:03:52.868Z,21.24
2023-03-07T19:06:21.196Z,21.23
2023-03-07T19:08:48.250Z,21.13
2023-03-07T19:11:15.470Z,21.24
2023-03-07T19:13:43.240Z,21.24
2023-03-07T19:16:20.069Z,21.25
2023-03-07T19:18:47.213Z,21.25
2023-03-07T19:21:19.734Z,21.25
2023-03-07T19:23:47.316Z,21.25
2023-03-07T19:26:18.318Z,21.24
2023-03-07T19:28:46.561Z,21.19
2023-03-07T19:31:21.934Z,21.26
2023-03-07T19:33:51.112Z,21.27
2023-03-07T19:36:26.807Z,21.19
2023-03-07T19:38:56.332Z,21.27
2023-03-07T19:41:27.679Z,21.28
2023-03-07T19:43:56.968Z,21.28
2023-03-07T19:46:29.946Z,21.29
2023-03-07T19:48:59.594Z,21.20
2023-03-07T19:51:26.632Z,21.28
2023-03-07T19:53:56.968Z,21.20
2023-03-07T19:56:29.208Z,21.29
2023-03-07T19:59:00.134Z,21.28
2023-03-07T20:01:28.669Z,21.27
2023-03-07T20:04:00.642Z,21.07
2023-03-07T20:06:31.453Z,21.27
2023-03-07T20:09:03.205Z,21.13
2023-03-07T20:11:32.715Z,21.20
2023-03-07T20:14:01.608Z,21.27
2023-03-07T20:16:29.128Z,21.13
2023-03-07T20:18:58.246Z,21.28
2023-03-07T20:21:28.310Z,21.21
2023-03-07T20:23:59.153Z,21.19
2023-03-07T20:26:37.675Z,21.22
2023-03-07T20:29:07.406Z,21.08
2023-03-07T20:31:34.618Z,21.25
2023-03-07T20:34:01.426Z,21.24
2023-03-07T20:36:30.580Z,21.17
2023-03-07T20:39:03.051Z,21.15
2023-03-07T20:41:32.389Z,21.21
2023-03-07T20:44:04.176Z,21.20
2023-03-07T20:46:31.910Z,21.19
2023-03-07T20:49:00.139Z,21.19
2023-03-07T20:51:35.071Z,21.15
2023-03-07T20:54:07.821Z,21.17
2023-03-07T20:56:36.677Z,21.15
2023-03-07T20:59:04.310Z,21.17
2023-03-07T21:01:32.982Z,21.16
2023-03-07T21:04:06.612Z,21.16
2023-03-07T21:06:38.035Z,21.15
2023-03-07T21:09:08.126Z,21.05
2023-03-07T21:11:36.550Z,21.13
2023-03-07T21:14:04.822Z,21.13
2023-03-07T21:16:31.700Z,21.11
2023-03-07T21:19:02.435Z,21.08
2023-03-07T21:21:31.285Z,21.10
2023-03-07T21:23:58.178Z,21.08
2023-03-07T21:26:27.640Z,21.12
2023-03-07T21:28:54.381Z,21.10
2023-03-07T21:31:23.803Z,21.08
2023-03-07T21:33:55.725Z,21.09
2023-03-07T21:36:29.291Z,21.12
2023-03-07T21:38:56.038Z,21.05
2023-03-07T21:41:24.932Z,21.06
2023-03-07T21:43:53.377Z,21.13
2023-03-07T21:46:20.491Z,21.14
2023-03-07T21:48:47.129Z,21.14
2023-03-07T21:51:13.814Z,21.15
2023-03-07T21:53:40.531Z,21.04
2023-03-07T21:56:10.121Z,21.16
2023-03-07T21:58:37.729Z,21.18
2023-03-07T22:01:25.544Z,21.19
2023-03-07T22:03:54.215Z,21.19
2023-03-07T22:06:21.494Z,21.21
2023-03-07T22:08:48.177Z,21.20
2023-03-07T22:11:15.187Z,21.20
2023-03-07T22:13:42.196Z,21.21
2023-03-07T22:16:12.665Z,21.22
2023-03-07T22:18:39.671Z,21.22
2023-03-07T22:21:11.422Z,21.22
2023-03-07T22:23:38.092Z,21.22
2023-03-07T22:26:07.860Z,21.18
2023-03-07T22:28:34.939Z,21.13
2023-03-07T22:31:06.994Z,21.22
2023-03-07T22:33:33.699Z,21.22
2023-03-07T22:36:03.202Z,21.24
2023-03-07T22:38:30.085Z,21.24
2023-03-07T22:41:01.587Z,21.25
2023-03-07T22:43:30.802Z,21.25
2023-03-07T22:45:57.343Z,21.24
2023-03-07T22:48:23.921Z,21.25
2023-03-07T22:50:50.546Z,21.26
2023-03-07T22:53:17.012Z,21.26
2023-03-07T22:55:44.453Z,21.26
2023-03-07T22:58:12.359Z,21.26
2023-03-07T23:00:44.143Z,21.26
2023-03-07T23:03:11.919Z,21.26
2023-03-07T23:05:38.510Z,21.27
2023-03-07T23:08:05.660Z,21.27
2023-03-07T23:10:32.620Z,21.27
2023-03-07T23:12:59.410Z,21.28
2023-03-07T23:15:26.015Z,21.27
2023-03-07T23:17:52.807Z,21.28
2023-03-07T23:20:19.818Z,21.28
2023-03-07T23:22:47.014Z,21.27
2023-03-07T23:25:15.053Z,21.27
2023-03-07T23:27:41.583Z,21.28
2023-03-07T23:30:09.032Z,21.25
2023-03-07T23:32:35.847Z,21.28
2023-03-07T23:35:02.665Z,21.29
2023-03-07T23:37:29.348Z,21.28
2023-03-07T23:39:55.986Z,21.28
2023-03-07T23:42:22.659Z,20.99
2023-03-07T23:44:49.556Z,21.27
2023-03-07T23:47:16.450Z,21.28
2023-03-07T23:49:43.038Z,21.28
2023-03-07T23:52:09.601Z,21.27
2023-03-07T23:54:36.171Z,21.26
2023-03-07T23:57:02.870Z,21.26
2023-03-07T23:59:29.383Z,21.27
